Time;durP1;ratioP1;P1;durP2;ratioP2;P2;SDS_P1;SDS_P2;PMS_P1;PMS_P2;Temp;Humidity;BMP_temperature;BMP_pressure;BME280_temperature;BME280_humidity;BME280_pressure;Samples;Min_cycle;Max_cycle;Signal;HPM_P1;HPM_P2
2022/06/04 00:01:45;;;;;;;3.92;0.80;;;12.90;99.90;;;;;;5051093;28;20496;-77
2022/06/04 00:04:15;;;;;;;1.63;0.60;;;12.90;99.90;;;;;;5034885;28;20397;-77
2022/06/04 00:06:43;;;;;;;1.50;0.65;;;12.90;99.90;;;;;;5067372;28;20029;-77
2022/06/04 00:09:11;;;;;;;2.67;0.77;;;12.90;99.90;;;;;;5050986;28;20028;-77
2022/06/04 00:17:12;;;;;;;2.20;0.70;;;13.10;99.90;;;;;;5056508;28;20032;-77
2022/06/04 00:19:40;;;;;;;2.28;0.70;;;13.20;99.90;;;;;;5056185;28;20097;-78
2022/06/04 00:22:08;;;;;;;2.05;0.60;;;13.30;99.90;;;;;;5038175;28;20033;-76
2022/06/04 00:24:36;;;;;;;3.13;0.85;;;13.30;99.90;;;;;;5054565;28;20078;-77
2022/06/04 00:27:04;;;;;;;1.25;0.63;;;13.50;99.90;;;;;;5056219;28;20017;-78
2022/06/04 00:29:32;;;;;;;1.70;0.75;;;13.40;99.90;;;;;;5056442;28;20048;-78
2022/06/04 00:32:00;;;;;;;3.03;0.45;;;13.50;99.90;;;;;;5054538;28;20392;-77
2022/06/04 00:34:28;;;;;;;1.67;0.70;;;13.50;99.90;;;;;;5056032;28;20428;-79
2022/06/04 00:36:56;;;;;;;1.42;0.60;;;13.50;99.90;;;;;;5055916;28;20060;-78
2022/06/04 00:39:23;;;;;;;1.45;0.70;;;13.50;99.90;;;;;;5071337;28;20500;-77
2022/06/04 00:42:10;;;;;;;1.55;0.65;;;13.50;99.90;;;;;;5055731;28;20017;-78
2022/06/04 00:44:57;;;;;;;4.10;1.00;;;13.60;99.90;;;;;;5054325;28;20082;-77
2022/06/04 00:47:28;;;;;;;2.15;0.90;;;13.70;99.90;;;;;;5054363;28;20111;-77
2022/06/04 00:49:56;;;;;;;1.77;0.77;;;13.80;99.90;;;;;;5055881;28;20122;-77
2022/06/04 00:52:26;;;;;;;2.92;0.85;;;13.90;99.90;;;;;;5055681;28;20067;-77
2022/06/04 00:54:56;;;;;;;1.27;0.60;;;14.00;99.90;;;;;;5055831;28;20071;-77
2022/06/04 00:57:43;;;;;;;;;;;13.90;99.90;;;;;;5056908;28;20043;-78
2022/06/04 01:00:18;;;;;;;1.70;0.63;;;13.90;99.90;;;;;;5055654;28;19905;-79
2022/06/04 01:02:51;;;;;;;3.17;0.70;;;13.90;99.90;;;;;;5055502;28;20388;-79
2022/06/04 01:05:42;;;;;;;2.28;0.73;;;14.00;99.90;;;;;;5055828;28;20021;-77
2022/06/04 01:08:35;;;;;;;1.02;0.40;;;14.10;99.90;;;;;;5055618;28;20021;-78
2022/06/04 01:11:14;;;;;;;1.55;0.73;;;14.10;99.90;;;;;;5053160;28;20048;-77
2022/06/04 01:14:12;;;;;;;2.15;0.50;;;14.30;99.90;;;;;;5055478;28;20048;-77
2022/06/04 01:16:42;;;;;;;1.67;0.70;;;14.30;99.90;;;;;;5054055;28;20025;-77
2022/06/04 01:19:35;;;;;;;2.47;0.93;;;14.30;99.90;;;;;;5055460;28;20389;-78
2022/06/04 01:22:30;;;;;;;3.75;0.70;;;14.40;99.90;;;;;;5055777;28;20056;-78
2022/06/04 01:25:19;;;;;;;1.30;0.43;;;14.40;99.90;;;;;;5055048;28;20031;-77
2022/06/04 01:27:54;;;;;;;1.20;0.70;;;14.60;99.90;;;;;;5055303;28;20021;-77
2022/06/04 01:30:34;;;;;;;1.15;0.57;;;14.70;99.90;;;;;;5055298;28;20043;-79
2022/06/04 01:33:19;;;;;;;2.45;0.55;;;14.70;99.90;;;;;;5055488;28;20021;-78
2022/06/04 01:35:58;;;;;;;1.42;0.50;;;14.80;99.90;;;;;;5055481;28;20028;-78
2022/06/04 01:38:37;;;;;;;3.53;0.50;;;15.00;99.90;;;;;;5054463;28;20481;-78
2022/06/04 01:41:25;;;;;;;1.90;0.40;;;15.10;99.90;;;;;;5055157;28;20104;-77
2022/06/04 01:44:02;;;;;;;1.20;0.50;;;15.10;99.90;;;;;;5055244;28;20035;-78
2022/06/04 01:46:56;;;;;;;1.58;0.50;;;15.00;99.90;;;;;;5053867;28;20029;-78
2022/06/04 01:49:33;;;;;;;0.95;0.30;;;15.00;99.90;;;;;;5053125;28;20112;-77
2022/06/04 01:52:11;;;;;;;1.65;0.50;;;14.90;99.90;;;;;;5054456;28;20025;-77
2022/06/04 01:54:49;;;;;;;2.95;0.50;;;15.10;99.90;;;;;;5054535;28;20381;-77
2022/06/04 01:57:44;;;;;;;1.35;0.40;;;15.10;99.90;;;;;;5054387;28;20025;-77
2022/06/04 02:00:14;;;;;;;1.95;0.77;;;15.20;99.90;;;;;;5053277;28;20115;-76
2022/06/04 02:02:51;;;;;;;2.78;0.63;;;15.10;99.90;;;;;;5054149;28;20021;-76
2022/06/04 02:05:27;;;;;;;2.25;0.40;;;15.00;99.90;;;;;;5054025;28;20496;-77
2022/06/04 02:07:57;;;;;;;1.08;0.40;;;15.20;99.90;;;;;;5054226;28;20048;-77
2022/06/04 02:11:10;;;;;;;2.55;0.50;;;15.30;99.90;;;;;;5052649;28;20067;-78
2022/06/04 02:13:39;;;;;;;1.63;0.70;;;15.40;99.90;;;;;;5048375;28;20041;-78
2022/06/04 02:16:19;;;;;;;0.98;0.30;;;15.50;99.90;;;;;;5053979;28;20082;-78
2022/06/04 02:18:46;;;;;;;2.70;0.50;;;15.60;99.90;;;;;;5052710;28;20025;-78
2022/06/04 02:21:16;;;;;;;1.83;0.30;;;15.60;99.90;;;;;;5052409;28;20396;-77
2022/06/04 02:23:45;;;;;;;1.77;0.50;;;15.60;99.90;;;;;;5069101;28;20029;-78
2022/06/04 02:26:13;;;;;;;1.75;0.30;;;15.70;99.90;;;;;;5053605;28;20029;-78
2022/06/04 02:28:41;;;;;;;2.53;0.60;;;15.80;99.90;;;;;;5054809;28;20021;-77
2022/06/04 02:31:30;;;;;;;2.47;0.40;;;15.80;99.90;;;;;;5054402;28;20046;-78
2022/06/04 02:34:16;;;;;;;2.72;0.50;;;15.90;99.90;;;;;;5053514;28;20028;-77
2022/06/04 02:36:56;;;;;;;1.17;0.47;;;16.00;99.90;;;;;;5051800;28;20024;-78
2022/06/04 02:39:49;;;;;;;0.85;0.40;;;16.00;99.90;;;;;;5053401;28;20055;-78
2022/06/04 02:42:45;;;;;;;1.20;0.70;;;15.90;99.90;;;;;;5053873;28;20078;-78
2022/06/04 02:45:28;;;;;;;2.45;0.75;;;16.00;99.90;;;;;;5052039;28;20500;-77
2022/06/04 02:48:22;;;;;;;1.38;0.43;;;16.00;99.90;;;;;;5053459;28;20024;-77
2022/06/04 02:50:58;;;;;;;1.38;0.50;;;16.00;99.90;;;;;;5052673;28;20033;-77
2022/06/04 02:53:27;;;;;;;2.10;0.35;;;16.00;99.90;;;;;;5052125;28;20036;-77
2022/06/04 02:56:01;;;;;;;0.70;0.20;;;16.10;99.90;;;;;;5052011;28;20020;-78
2022/06/04 02:58:29;;;;;;;1.98;0.30;;;16.10;99.80;;;;;;5068708;28;20029;-77
2022/06/04 03:00:58;;;;;;;1.30;0.32;;;16.20;99.60;;;;;;5051936;28;20078;-77
2022/06/04 03:03:26;;;;;;;0.80;0.35;;;16.30;99.80;;;;;;5068536;28;20389;-78
2022/06/04 03:06:00;;;;;;;1.20;0.30;;;16.30;99.40;;;;;;5053256;28;20112;-78
2022/06/04 03:08:30;;;;;;;2.28;0.50;;;16.40;99.40;;;;;;5053157;28;20100;-79
2022/06/04 03:10:57;;;;;;;2.00;0.40;;;16.50;98.90;;;;;;5051850;28;20083;-78
2022/06/04 03:13:25;;;;;;;1.88;0.30;;;16.50;99.10;;;;;;5051506;28;20056;-76
2022/06/04 03:15:53;;;;;;;1.30;0.30;;;16.40;98.80;;;;;;5051763;28;20495;-77
2022/06/04 03:18:20;;;;;;;1.08;0.20;;;16.40;99.20;;;;;;5068223;28;20028;-76
2022/06/04 03:20:48;;;;;;;0.77;0.40;;;16.50;99.80;;;;;;5052919;28;20046;-76
2022/06/04 03:23:16;;;;;;;0.90;0.30;;;16.60;99.30;;;;;;5051390;28;20393;-76
2022/06/04 03:25:43;;;;;;;2.38;0.45;;;16.50;98.60;;;;;;5051400;28;20124;-75
2022/06/04 03:28:11;;;;;;;2.55;0.40;;;16.60;98.60;;;;;;5052771;28;20024;-75
2022/06/04 03:30:39;;;;;;;2.72;0.43;;;16.60;98.50;;;;;;5052766;28;20104;-75
2022/06/04 03:33:07;;;;;;;1.05;0.30;;;16.60;98.60;;;;;;5051561;28;20027;-75
2022/06/04 03:35:35;;;;;;;1.30;0.40;;;16.50;98.80;;;;;;5051810;28;20052;-75
2022/06/04 03:38:02;;;;;;;0.75;0.40;;;16.60;98.60;;;;;;5068011;28;20021;-75
2022/06/04 03:40:30;;;;;;;1.20;0.30;;;16.80;99.60;;;;;;5052616;28;20022;-75
2022/06/04 03:42:57;;;;;;;1.75;0.30;;;16.80;98.00;;;;;;5051145;28;20419;-75
2022/06/04 03:45:26;;;;;;;1.73;0.50;;;16.60;98.50;;;;;;5052536;28;20112;-75
2022/06/04 03:47:55;;;;;;;2.28;0.50;;;16.60;98.60;;;;;;5054143;28;20021;-75
2022/06/04 03:50:22;;;;;;;1.48;0.43;;;16.60;98.40;;;;;;5055495;28;20021;-75
2022/06/04 03:52:50;;;;;;;1.85;0.63;;;16.40;98.30;;;;;;5071868;28;20022;-75
2022/06/04 03:55:19;;;;;;;1.67;0.65;;;16.50;98.60;;;;;;5056548;28;20480;-76
2022/06/04 03:57:48;;;;;;;1.38;0.70;;;16.60;99.20;;;;;;5055234;28;20056;-75
2022/06/04 04:00:24;;;;;;;2.17;0.80;;;16.60;98.40;;;;;;5056614;28;20017;-75
2022/06/04 04:02:57;;;;;;;1.52;0.55;;;16.60;99.00;;;;;;5056404;28;20033;-76
2022/06/04 04:05:32;;;;;;;2.53;0.52;;;16.60;98.70;;;;;;5056399;28;20036;-75
2022/06/04 04:08:01;;;;;;;0.63;0.40;;;16.60;98.70;;;;;;5054892;28;20393;-75
2022/06/04 04:10:30;;;;;;;0.98;0.50;;;16.70;99.10;;;;;;5056367;28;20052;-74
2022/06/04 04:12:58;;;;;;;2.42;0.45;;;16.70;98.90;;;;;;5056087;28;20017;-75
2022/06/04 04:15:27;;;;;;;0.57;0.50;;;16.70;99.20;;;;;;5056063;28;20033;-75
2022/06/04 04:17:55;;;;;;;2.03;0.50;;;16.70;99.10;;;;;;5056245;28;20036;-75
2022/06/04 04:20:29;;;;;;;1.73;0.40;;;16.70;99.10;;;;;;5056084;28;20032;-74
2022/06/04 04:22:57;;;;;;;1.55;0.60;;;16.70;99.30;;;;;;5056466;28;20021;-74
2022/06/04 04:25:28;;;;;;;2.53;1.27;;;16.70;99.20;;;;;;5055858;28;20025;-73
2022/06/04 04:27:56;;;;;;;2.08;0.60;;;16.60;99.40;;;;;;5071338;28;20032;-74
2022/06/04 04:30:28;;;;;;;1.52;0.52;;;16.70;99.30;;;;;;5055873;28;20063;-74
2022/06/04 04:32:56;;;;;;;1.92;0.60;;;16.70;99.30;;;;;;5056142;28;20047;-75
2022/06/04 04:35:26;;;;;;;1.80;0.70;;;16.70;99.50;;;;;;5055903;28;20021;-75
2022/06/04 04:37:54;;;;;;;1.85;0.90;;;16.70;99.50;;;;;;5055852;28;20025;-75
2022/06/04 04:40:24;;;;;;;1.75;0.60;;;16.70;99.40;;;;;;5055594;28;20033;-75
2022/06/04 04:42:51;;;;;;;1.02;0.30;;;16.60;99.90;;;;;;5054333;28;20036;-75
2022/06/04 04:45:21;;;;;;;1.35;0.40;;;16.60;99.70;;;;;;5055385;28;20079;-74
2022/06/04 04:47:49;;;;;;;2.40;0.68;;;16.60;99.90;;;;;;5054209;28;20393;-75
2022/06/04 04:50:19;;;;;;;2.20;0.98;;;16.60;99.40;;;;;;5055525;28;20017;-75
2022/06/04 04:52:47;;;;;;;1.20;0.40;;;16.60;99.90;;;;;;5070819;28;20108;-74
2022/06/04 04:55:14;;;;;;;1.02;0.40;;;16.50;99.90;;;;;;5054062;28;20032;-76
2022/06/04 04:57:42;;;;;;;2.28;0.50;;;16.50;99.80;;;;;;5055402;28;20036;-77
2022/06/04 05:00:10;;;;;;;1.40;0.70;;;16.40;99.90;;;;;;5054442;28;20028;-75
2022/06/04 05:02:38;;;;;;;1.88;0.50;;;16.40;99.90;;;;;;5055748;28;20033;-75
2022/06/04 05:05:06;;;;;;;4.90;0.52;;;16.50;99.80;;;;;;5055096;28;20032;-72
2022/06/04 05:07:34;;;;;;;0.98;0.50;;;16.50;99.90;;;;;;5070510;28;20017;-73
2022/06/04 05:10:02;;;;;;;1.17;0.57;;;16.50;99.70;;;;;;5055077;28;20367;-72
2022/06/04 05:12:30;;;;;;;1.65;0.40;;;16.60;99.90;;;;;;5055088;28;20024;-72
2022/06/04 05:14:57;;;;;;;0.82;0.47;;;16.50;99.60;;;;;;5053328;28;20151;-72
2022/06/04 05:17:25;;;;;;;1.10;0.40;;;16.50;99.80;;;;;;5054946;28;20021;-72
2022/06/04 05:19:52;;;;;;;1.98;0.70;;;16.50;99.90;;;;;;5053510;28;20017;-74
2022/06/04 05:22:20;;;;;;;0.82;0.30;;;16.40;99.70;;;;;;5054984;28;20017;-73
2022/06/04 05:24:47;;;;;;;0.93;0.40;;;16.40;99.70;;;;;;5070149;28;20029;-74
2022/06/04 05:27:15;;;;;;;1.75;0.40;;;16.40;99.90;;;;;;5054714;28;20021;-74
2022/06/04 05:29:42;;;;;;;1.00;0.57;;;16.40;99.90;;;;;;5054652;28;20390;-74
2022/06/04 05:32:10;;;;;;;1.27;0.50;;;16.30;99.70;;;;;;5054397;28;20076;-73
2022/06/04 05:34:38;;;;;;;0.85;0.40;;;16.30;99.90;;;;;;5054467;28;20074;-74
2022/06/04 05:37:08;;;;;;;0.85;0.40;;;16.20;99.90;;;;;;5053111;28;20025;-73
2022/06/04 05:39:35;;;;;;;1.75;0.80;;;16.20;99.90;;;;;;5054654;28;20029;-73
2022/06/04 05:42:05;;;;;;;1.52;0.50;;;16.20;99.90;;;;;;5054442;28;20025;-74
2022/06/04 05:44:33;;;;;;;1.27;0.52;;;16.20;99.90;;;;;;5054567;28;20033;-74
2022/06/04 05:47:00;;;;;;;9.00;6.55;;;16.10;99.90;;;;;;5054174;28;20108;-75
2022/06/04 05:49:28;;;;;;;2.45;1.40;;;16.00;99.90;;;;;;5053055;28;20032;-74
2022/06/04 05:51:55;;;;;;;2.28;0.80;;;16.00;99.90;;;;;;5056072;28;20389;-74
2022/06/04 05:54:23;;;;;;;0.80;0.50;;;16.00;99.90;;;;;;5054578;28;20471;-72
2022/06/04 05:56:51;;;;;;;1.58;0.40;;;15.90;99.90;;;;;;5052987;28;20025;-71
2022/06/04 05:59:22;;;;;;;0.82;0.40;;;15.80;99.90;;;;;;5054181;28;20082;-73
2022/06/04 06:01:50;;;;;;;1.58;0.52;;;15.80;99.90;;;;;;5054784;28;20021;-73
2022/06/04 06:04:19;;;;;;;1.20;0.60;;;15.80;99.90;;;;;;5052884;28;20036;-74
2022/06/04 06:06:50;;;;;;;0.90;0.50;;;15.70;99.90;;;;;;5054009;28;20017;-74
2022/06/04 06:09:20;;;;;;;2.55;0.60;;;15.60;99.90;;;;;;5054244;28;20036;-74
2022/06/04 06:11:49;;;;;;;1.35;0.40;;;15.50;99.90;;;;;;5052686;28;20346;-73
2022/06/04 06:14:17;;;;;;;2.13;0.82;;;15.40;99.90;;;;;;5052243;28;20045;-72
2022/06/04 06:16:46;;;;;;;1.88;0.93;;;15.30;99.90;;;;;;5054118;28;20389;-73
2022/06/04 06:19:15;;;;;;;1.58;0.55;;;15.30;99.90;;;;;;5053890;28;20053;-73
2022/06/04 06:21:43;;;;;;;3.30;1.10;;;15.20;99.90;;;;;;5053960;28;20134;-73
2022/06/04 06:24:12;;;;;;;2.42;1.35;;;15.00;99.90;;;;;;5053847;28;20021;-73
2022/06/04 06:26:49;;;;;;;1.90;1.80;;;14.90;99.90;;;;;;5053575;28;20546;-73
2022/06/04 06:29:17;;;;;;;1.42;0.75;;;14.80;99.90;;;;;;5052387;28;20112;-73
2022/06/04 06:31:45;;;;;;;6.40;3.05;;;14.60;99.90;;;;;;5053619;28;20025;-73
2022/06/04 06:34:13;;;;;;;1.27;0.60;;;14.50;99.90;;;;;;5053716;28;20066;-74
2022/06/04 06:36:41;;;;;;;2.25;0.90;;;14.50;99.90;;;;;;5054243;28;20025;-75
2022/06/04 06:39:09;;;;;;;4.10;1.40;;;14.40;99.90;;;;;;5056332;28;20025;-74
2022/06/04 06:41:36;;;;;;;4.32;3.25;;;14.50;99.90;;;;;;5055920;28;20091;-74
2022/06/04 06:44:04;;;;;;;1.13;0.95;;;14.40;99.90;;;;;;5055412;28;20024;-73
2022/06/04 06:46:39;;;;;;;1.75;0.82;;;14.30;99.90;;;;;;5053934;28;20029;-73
2022/06/04 06:49:09;;;;;;;2.53;1.17;;;14.20;99.90;;;;;;5053805;28;20078;-78
2022/06/04 06:51:39;;;;;;;2.50;1.10;;;14.10;99.90;;;;;;5053701;28;20045;-77
2022/06/04 06:54:06;;;;;;;;;;;13.90;99.90;;;;;;5053619;28;20564;-75
2022/06/04 06:56:37;;;;;;;2.38;1.10;;;13.80;99.90;;;;;;5053491;28;20276;-76
2022/06/04 06:59:05;;;;;;;1.90;0.90;;;13.70;99.90;;;;;;5068747;28;20075;-76
2022/06/04 07:01:33;;;;;;;1.95;1.05;;;13.60;99.90;;;;;;5053198;28;20029;-76
2022/06/04 07:04:02;;;;;;;1.92;1.20;;;13.50;99.90;;;;;;5068366;28;20392;-74
2022/06/04 07:06:36;;;;;;;1.52;0.75;;;13.50;99.90;;;;;;5052821;28;20096;-72
2022/06/04 07:09:06;;;;;;;2.83;1.65;;;13.50;99.90;;;;;;5053759;28;20016;-75
2022/06/04 07:11:37;;;;;;;5.85;3.70;;;13.50;99.90;;;;;;5053313;28;20049;-74
2022/06/04 07:14:04;;;;;;;3.40;1.70;;;13.50;99.90;;;;;;5052883;28;20405;-75
2022/06/04 07:16:32;;;;;;;3.90;3.50;;;13.30;99.90;;;;;;5052996;28;20040;-75
2022/06/04 07:19:00;;;;;;;2.15;1.95;;;13.20;99.90;;;;;;5051471;28;20043;-75
2022/06/04 07:21:28;;;;;;;3.15;2.40;;;13.00;99.90;;;;;;5052801;28;20434;-75
2022/06/04 07:23:55;;;;;;;3.65;1.98;;;12.90;99.90;;;;;;5052364;28;20104;-75
2022/06/04 07:26:23;;;;;;;16.13;14.20;;;12.80;99.90;;;;;;5052797;28;20040;-75
2022/06/04 07:28:51;;;;;;;24.30;20.73;;;12.80;99.90;;;;;;5068240;28;20388;-75
2022/06/04 07:31:18;;;;;;;3.38;2.50;;;12.60;99.90;;;;;;5052827;28;20021;-75
2022/06/04 07:33:47;;;;;;;10.63;8.55;;;12.60;99.90;;;;;;5051334;28;20432;-75
2022/06/04 07:36:17;;;;;;;11.00;8.75;;;12.60;99.90;;;;;;5052720;28;20024;-75
2022/06/04 07:38:46;;;;;;;14.35;9.75;;;12.50;99.90;;;;;;5051403;28;20021;-75
2022/06/04 07:41:22;;;;;;;15.70;13.23;;;12.40;99.90;;;;;;5052772;28;20047;-75
2022/06/04 07:43:50;;;;;;;13.25;11.95;;;12.30;99.90;;;;;;5052935;28;20138;-75
2022/06/04 07:46:18;;;;;;;38.35;34.25;;;12.20;99.90;;;;;;5067833;28;20082;-74
2022/06/04 07:48:46;;;;;;;27.02;23.58;;;12.10;99.90;;;;;;5052613;28;20021;-75
2022/06/04 07:51:14;;;;;;;57.10;51.00;;;12.10;99.90;;;;;;5067843;28;20021;-74
2022/06/04 07:53:42;;;;;;;41.60;37.20;;;12.00;99.90;;;;;;5052528;28;20028;-76
2022/06/04 07:56:13;;;;;;;25.40;22.55;;;11.90;99.90;;;;;;5067923;28;20035;-74
2022/06/04 07:58:42;;;;;;;20.63;17.58;;;11.80;99.90;;;;;;5052567;28;20056;-76
2022/06/04 08:01:14;;;;;;;48.10;39.03;;;11.70;99.90;;;;;;5067888;28;20029;-75
2022/06/04 08:03:43;;;;;;;25.98;21.85;;;11.60;99.90;;;;;;5052544;28;20025;-74
2022/06/04 08:06:13;;;;;;;28.88;25.27;;;11.50;99.90;;;;;;5067592;28;20032;-74
2022/06/04 08:08:41;;;;;;;17.98;15.18;;;11.50;99.90;;;;;;5052427;28;20025;-74
2022/06/04 08:13:54;;;;;;;10.43;8.55;;;11.40;99.90;;;;;;5052428;28;20091;-75
2022/06/04 08:16:21;;;;;;;16.98;15.25;;;11.30;99.90;;;;;;5052263;28;20017;-75
2022/06/04 08:18:49;;;;;;;17.77;14.77;;;11.20;99.90;;;;;;5052369;28;20444;-75
2022/06/04 08:21:16;;;;;;;8.10;6.82;;;11.10;99.90;;;;;;5052210;28;20032;-75
2022/06/04 08:23:44;;;;;;;18.92;16.38;;;11.10;99.90;;;;;;5052249;28;20104;-75
2022/06/04 08:26:13;;;;;;;18.80;16.80;;;11.00;99.90;;;;;;5052177;28;20029;-76
2022/06/04 08:28:40;;;;;;;33.67;30.05;;;11.00;99.90;;;;;;5052185;28;20380;-75
2022/06/04 08:31:12;;;;;;;36.90;33.10;;;11.00;99.90;;;;;;5052224;28;20029;-73
2022/06/04 08:33:41;;;;;;;29.08;24.83;;;10.90;99.90;;;;;;5067593;28;20026;-73
2022/06/04 08:36:11;;;;;;;18.83;16.55;;;11.00;99.90;;;;;;5055416;28;20029;-73
2022/06/04 08:38:39;;;;;;;20.92;18.27;;;10.90;99.90;;;;;;5071062;28;20021;-73
2022/06/04 08:41:09;;;;;;;29.23;23.60;;;10.90;99.90;;;;;;5055752;28;20199;-74
2022/06/04 08:43:58;;;;;;;11.57;8.60;;;10.90;99.90;;;;;;5071000;28;20408;-75
2022/06/04 08:46:43;;;;;;;22.42;17.65;;;10.90;99.90;;;;;;5055667;28;20104;-73
2022/06/04 08:49:29;;;;;;;29.52;25.85;;;10.90;99.90;;;;;;5055876;28;20017;-73
2022/06/04 08:52:00;;;;;;;33.78;29.55;;;11.00;99.90;;;;;;5070959;28;20043;-75
2022/06/04 08:57:35;;;;;;;23.58;20.92;;;11.00;99.90;;;;;;5055523;28;20083;-74
2022/06/04 09:00:15;;;;;;;6.97;5.63;;;10.90;99.90;;;;;;5055472;28;20063;-73
2022/06/04 09:02:51;;;;;;;6.43;4.63;;;11.00;99.90;;;;;;5053988;28;20032;-73
2022/06/04 09:05:42;;;;;;;10.98;6.97;;;11.00;99.90;;;;;;5055391;28;20024;-74
2022/06/04 09:08:50;;;;;;;29.90;22.20;;;11.00;99.90;;;;;;5055149;28;20067;-74
2022/06/04 09:11:33;;;;;;;12.80;10.02;;;10.90;99.90;;;;;;5056240;28;20017;-75
2022/06/04 09:14:28;;;;;;;6.22;4.65;;;11.00;99.90;;;;;;5071075;28;20188;-75
2022/06/04 09:17:12;;;;;;;4.63;2.70;;;11.00;99.90;;;;;;5057093;28;20087;-75
2022/06/04 09:19:42;;;;;;;7.50;4.72;;;11.20;99.90;;;;;;5056162;28;20025;-75
2022/06/04 09:22:23;;;;;;;13.35;11.00;;;11.10;99.90;;;;;;5055933;28;20023;-75
2022/06/04 09:24:50;;;;;;;9.43;6.53;;;11.00;99.90;;;;;;5071189;28;20124;-76
2022/06/04 09:27:40;;;;;;;10.27;7.93;;;10.80;99.90;;;;;;5071845;28;20084;-76
2022/06/04 09:30:56;;;;;;;8.70;6.55;;;10.80;99.90;;;;;;5071845;28;20078;-76
2022/06/04 09:33:43;;;;;;;9.65;5.95;;;10.70;99.90;;;;;;5036788;28;20489;-75
2022/06/04 09:36:18;;;;;;;13.70;11.15;;;10.60;99.90;;;;;;5055000;28;20032;-74
2022/06/04 09:39:02;;;;;;;14.68;10.10;;;10.50;99.90;;;;;;5055286;28;20025;-74
2022/06/04 09:41:32;;;;;;;10.65;7.18;;;10.40;99.90;;;;;;5055287;28;20088;-74
2022/06/04 09:44:15;;;;;;;24.45;21.83;;;10.30;99.90;;;;;;5054739;28;20023;-74
2022/06/04 09:46:45;;;;;;;17.85;13.68;;;10.40;99.90;;;;;;5054693;28;20056;-74
2022/06/04 09:49:30;;;;;;;16.53;14.17;;;10.40;99.90;;;;;;5054586;28;20017;-72
2022/06/04 09:51:57;;;;;;;13.02;9.90;;;10.30;99.90;;;;;;5054629;28;20285;-73
2022/06/04 09:54:36;;;;;;;15.43;12.20;;;10.30;99.90;;;;;;5054490;28;20031;-73
2022/06/04 09:57:05;;;;;;;16.63;12.88;;;10.20;99.90;;;;;;5054459;28;20040;-73
2022/06/04 09:59:34;;;;;;;13.90;9.35;;;10.20;99.90;;;;;;5054429;28;20052;-74
2022/06/04 10:02:11;;;;;;;13.88;11.73;;;10.10;99.90;;;;;;5053003;28;20112;-72
2022/06/04 10:04:47;;;;;;;17.48;11.60;;;10.10;99.90;;;;;;5054256;28;20017;-76
2022/06/04 10:07:23;;;;;;;9.45;7.20;;;10.10;99.90;;;;;;5054301;28;20078;-73
2022/06/04 10:09:59;;;;;;;8.75;7.25;;;10.10;99.90;;;;;;5054244;28;20381;-75
2022/06/04 10:15:38;;;;;;;7.35;5.53;;;10.00;99.90;;;;;;5054268;28;20044;-76
2022/06/04 10:18:14;;;;;;;6.72;4.97;;;10.00;99.90;;;;;;5069468;28;20028;-73
2022/06/04 10:20:42;;;;;;;7.00;5.07;;;9.90;99.90;;;;;;5054067;28;20017;-76
2022/06/04 10:23:16;;;;;;;7.88;6.43;;;9.90;99.90;;;;;;5054096;28;20085;-74
2022/06/04 10:26:07;;;;;;;6.65;5.43;;;9.80;99.90;;;;;;5054109;28;20025;-75
2022/06/04 10:29:01;;;;;;;9.25;6.95;;;9.70;99.90;;;;;;5054121;28;20397;-79
2022/06/04 10:31:41;;;;;;;8.27;6.40;;;9.70;99.90;;;;;;5054084;28;20100;-75
2022/06/04 10:34:26;;;;;;;7.40;5.45;;;9.60;99.90;;;;;;5054202;28;20025;-76
2022/06/04 10:36:53;;;;;;;5.85;4.05;;;9.60;99.90;;;;;;5053762;28;20108;-75
2022/06/04 10:39:35;;;;;;;6.13;3.80;;;9.70;99.90;;;;;;5052206;28;20036;-76
2022/06/04 10:42:09;;;;;;;5.95;3.80;;;9.70;99.90;;;;;;5053721;28;20096;-77
2022/06/04 10:44:58;;;;;;;5.10;3.05;;;9.60;99.90;;;;;;5053774;28;20074;-77
2022/06/04 10:47:38;;;;;;;7.65;4.07;;;9.70;99.90;;;;;;5053876;28;20032;-74
2022/06/04 10:51:25;;;;;;;3.65;2.75;;;9.60;99.90;;;;;;5053793;28;20021;-75
2022/06/04 10:53:34;;;;;;;3.80;2.70;;;9.70;99.90;;;;;;5053145;28;20025;-76
2022/06/04 10:56:05;;;;;;;8.05;5.05;;;9.70;99.90;;;;;;5051930;28;20074;-75
2022/06/04 10:58:48;;;;;;;4.80;3.38;;;9.70;99.90;;;;;;5051309;28;20025;-75
2022/06/04 11:01:43;;;;;;;7.28;5.20;;;9.70;99.90;;;;;;5053224;28;20167;-76
2022/06/04 11:04:22;;;;;;;4.75;2.70;;;9.70;99.90;;;;;;5053116;28;20021;-73
2022/06/04 11:06:56;;;;;;;3.75;2.15;;;9.70;99.90;;;;;;5053056;28;20385;-74
2022/06/04 11:09:45;;;;;;;3.58;2.80;;;9.80;99.90;;;;;;5053376;28;20082;-74
2022/06/04 11:12:27;;;;;;;2.58;2.13;;;9.80;99.90;;;;;;5051665;28;20048;-74
2022/06/04 11:14:59;;;;;;;8.93;4.97;;;9.80;99.90;;;;;;5052911;28;20048;-70
2022/06/04 11:17:54;;;;;;;2.88;2.38;;;10.20;99.90;;;;;;5053067;28;20052;-73
2022/06/04 11:20:57;;;;;;;2.88;1.95;;;10.20;99.90;;;;;;5052903;28;20132;-75
2022/06/04 11:23:36;;;;;;;2.53;2.00;;;10.00;99.90;;;;;;5051620;28;20029;-73
2022/06/04 11:26:19;;;;;;;3.47;1.60;;;9.90;99.90;;;;;;5053362;28;20123;-73
2022/06/04 11:28:47;;;;;;;1.92;1.45;;;9.90;99.90;;;;;;5051553;28;20017;-73
2022/06/04 11:31:23;;;;;;;2.83;1.80;;;9.90;99.90;;;;;;5052807;28;20028;-74
2022/06/04 11:34:02;;;;;;;2.75;1.80;;;9.80;99.90;;;;;;5053135;28;20013;-76
2022/06/04 11:36:32;;;;;;;2.95;1.70;;;9.70;99.90;;;;;;5053130;28;20017;-73
2022/06/04 11:39:12;;;;;;;2.67;1.80;;;9.70;99.90;;;;;;5053532;28;20025;-74
2022/06/04 11:42:00;;;;;;;3.33;1.73;;;9.70;99.90;;;;;;5052774;28;20086;-74
2022/06/04 11:44:45;;;;;;;2.38;1.40;;;9.70;99.90;;;;;;5051423;28;20485;-73
2022/06/04 11:47:34;;;;;;;2.78;1.17;;;9.70;99.90;;;;;;5052604;28;20389;-73
2022/06/04 11:50:22;;;;;;;2.35;1.50;;;9.70;99.90;;;;;;5052951;28;20087;-73
2022/06/04 11:53:18;;;;;;;2.45;1.15;;;9.80;99.90;;;;;;5052667;28;20097;-74
2022/06/04 11:56:22;;;;;;;1.95;1.20;;;9.80;99.90;;;;;;5052600;28;20104;-73
2022/06/04 11:59:07;;;;;;;2.00;1.50;;;9.90;99.90;;;;;;5051168;28;20033;-73
2022/06/04 12:01:43;;;;;;;1.50;0.90;;;9.90;99.90;;;;;;5052752;28;20056;-73
2022/06/04 12:04:20;;;;;;;2.08;1.00;;;10.00;99.90;;;;;;5052471;28;20036;-72
2022/06/04 12:07:05;;;;;;;1.77;0.82;;;10.00;99.90;;;;;;5052853;28;20032;-72
2022/06/04 12:09:47;;;;;;;1.98;1.05;;;9.90;99.90;;;;;;5053756;28;20032;-73
2022/06/04 12:12:26;;;;;;;2.03;1.00;;;9.90;99.90;;;;;;5055010;28;20499;-73
2022/06/04 12:15:00;;;;;;;1.52;0.80;;;9.80;99.90;;;;;;5056169;28;20400;-71
2022/06/04 12:17:42;;;;;;;1.52;1.10;;;9.80;99.90;;;;;;5056169;28;20489;-72
2022/06/04 12:26:29;;;;;;;1.65;1.30;;;9.60;99.90;;;;;;5056066;28;20051;-73
2022/06/04 12:28:57;;;;;;;2.58;1.23;;;9.50;99.90;;;;;;5056490;28;20024;-72
2022/06/04 12:31:30;;;;;;;1.88;1.10;;;9.50;99.90;;;;;;5055925;28;20093;-72
2022/06/04 12:33:58;;;;;;;1.02;0.77;;;9.40;99.90;;;;;;5056142;28;20325;-72
2022/06/04 12:36:28;;;;;;;3.42;1.20;;;9.30;99.90;;;;;;5054482;28;20025;-73
2022/06/04 12:39:03;;;;;;;3.00;1.20;;;9.30;99.90;;;;;;5055920;28;20385;-72
2022/06/04 12:41:48;;;;;;;1.65;1.05;;;9.30;99.90;;;;;;5054510;28;20025;-72
2022/06/04 12:44:23;;;;;;;1.60;1.10;;;9.30;99.90;;;;;;5055790;28;20100;-72
2022/06/04 12:46:52;;;;;;;2.40;1.30;;;9.30;99.90;;;;;;5055648;28;20091;-74
2022/06/04 12:49:37;;;;;;;2.13;1.50;;;9.20;99.90;;;;;;5055651;28;20021;-71
2022/06/04 12:52:23;;;;;;;2.15;1.40;;;9.20;99.90;;;;;;5070887;28;20029;-74
2022/06/04 12:55:08;;;;;;;2.10;1.38;;;9.20;99.90;;;;;;5055582;28;20024;-72
2022/06/04 12:57:57;;;;;;;1.02;0.90;;;9.20;99.90;;;;;;5054167;28;20028;-73
2022/06/04 13:00:30;;;;;;;1.42;1.13;;;9.20;99.90;;;;;;5055658;28;20021;-72
2022/06/04 13:03:09;;;;;;;1.98;0.93;;;9.20;99.90;;;;;;5055392;28;20029;-73
2022/06/04 13:05:59;;;;;;;1.23;0.90;;;9.10;99.90;;;;;;5055781;28;20036;-73
2022/06/04 13:08:27;;;;;;;1.83;1.02;;;9.20;99.90;;;;;;5055567;28;20086;-72
2022/06/04 13:11:10;;;;;;;2.47;1.08;;;9.20;99.90;;;;;;5055213;28;20040;-73
2022/06/04 13:13:58;;;;;;;2.13;1.50;;;9.10;99.90;;;;;;5055163;28;20041;-72
2022/06/04 13:16:31;;;;;;;1.33;1.00;;;9.20;99.90;;;;;;5055130;28;20040;-73
2022/06/04 13:19:10;;;;;;;2.45;1.08;;;9.30;99.90;;;;;;5055081;28;20021;-73
2022/06/04 13:21:45;;;;;;;2.13;0.73;;;9.20;99.90;;;;;;5053001;28;20029;-72
2022/06/04 13:24:24;;;;;;;1.45;0.80;;;9.30;99.90;;;;;;5055341;28;20028;-73
2022/06/04 13:26:59;;;;;;;1.20;1.10;;;9.50;99.90;;;;;;5053679;28;20503;-72
2022/06/04 13:29:30;;;;;;;1.60;0.90;;;9.50;99.90;;;;;;5053620;28;20028;-72
2022/06/04 13:32:00;;;;;;;1.20;0.80;;;9.40;99.90;;;;;;5053573;28;20024;-72
2022/06/04 13:34:31;;;;;;;1.65;1.00;;;9.40;99.90;;;;;;5070210;28;20124;-72
2022/06/04 13:37:29;;;;;;;2.30;0.90;;;9.40;99.90;;;;;;5055073;28;20029;-72
2022/06/04 13:39:56;;;;;;;1.90;1.17;;;9.30;99.90;;;;;;5054064;28;20040;-73
2022/06/04 13:42:40;;;;;;;2.45;0.82;;;9.30;99.90;;;;;;5054648;28;20020;-72
2022/06/04 13:45:10;;;;;;;1.10;0.88;;;9.30;99.90;;;;;;5054561;28;20029;-73